Decoded Metar for KGSH (GOSHEN in IN, USA) (IATA:GSH) | Meteo·Mobile Aviation Weather
aviador You're here:

KGSH Decoded Metar

GOSHEN in IN, USA
Report Time2019-04-20 10:53:00
UTC Time2019-04-20 11:07:37
Flight Rules vfr VFR
Wind020° at 19 Gusting to 29 kt
W.Decomp.*RWY 05: 17.1 kt HW 8.3 kt LCW
RWY 09: 7.7 kt HW 17.4 kt LCW
Visibility9999 m
Phenomena:N/A
Clouds:N/A
Expected CloudBase > 1,200 ft AGL from Temp-Dew spread
CeilingNone
Temp04°C (ISA -9)
Dew Point01°C (81% RH)
AAT-4.7°C
QNH1004 hPa
Density Alt95 ft
Elevation827 ft
Report Wrong Elevation
Raw Report
KGSH 201053Z AUTO 02019G29KT 10SM CLR 04/01 A2965 RMK AO2 PK WND
02029/1045 SLP046 T00440006=

Extra information for KGSH:More info

Metar Taf Metar & Taf Last 4 Metars F.Rules Stats Wind Profile Meteogram Temp Stats Airport Information Weather charts Add Link Nearby VenuesMetar ALERT Operation Metar Decoded Social comments

AIRNAV info for KGSH